createdAt,value
2019-01-13T00:00:56.826Z,6.65
2019-01-13T00:01:56.802Z,6.65
2019-01-13T00:02:56.790Z,6.63
2019-01-13T00:03:56.801Z,6.71
2019-01-13T00:04:56.801Z,6.72
2019-01-13T00:05:56.777Z,6.61
2019-01-13T00:06:56.799Z,6.68
2019-01-13T00:07:56.736Z,6.68
2019-01-13T00:08:56.750Z,6.71
2019-01-13T00:09:56.719Z,6.65
2019-01-13T00:10:56.713Z,6.71
2019-01-13T00:11:56.705Z,6.68
2019-01-13T00:12:56.679Z,6.69
2019-01-13T00:13:56.712Z,6.69
2019-01-13T00:14:56.723Z,6.65
2019-01-13T00:15:56.650Z,6.68
2019-01-13T00:16:56.679Z,6.64
2019-01-13T00:17:56.676Z,6.69
2019-01-13T00:18:56.649Z,6.61
2019-01-13T00:19:56.616Z,6.69
2019-01-13T00:20:56.597Z,6.65
2019-01-13T00:21:56.576Z,6.65
2019-01-13T00:22:56.584Z,6.68
2019-01-13T00:23:56.576Z,6.69
2019-01-13T00:24:56.559Z,6.69
2019-01-13T00:25:56.550Z,6.72
2019-01-13T00:26:56.540Z,6.69
2019-01-13T00:27:56.533Z,6.68
2019-01-13T00:28:56.531Z,6.63
2019-01-13T00:29:56.496Z,6.65
2019-01-13T00:30:56.526Z,6.69
2019-01-13T00:31:56.482Z,6.61
2019-01-13T00:32:56.475Z,6.64
2019-01-13T00:33:56.467Z,6.75
2019-01-13T00:34:56.453Z,6.63
2019-01-13T00:35:56.447Z,6.78
2019-01-13T00:36:56.477Z,6.63
2019-01-13T00:37:56.431Z,6.64
2019-01-13T00:38:56.416Z,6.69
2019-01-13T00:39:56.476Z,6.71
2019-01-13T00:40:56.386Z,6.65
2019-01-13T00:41:56.376Z,6.69
2019-01-13T00:42:56.371Z,6.69
2019-01-13T00:43:56.366Z,6.68
2019-01-13T00:44:56.345Z,6.68
2019-01-13T00:45:56.323Z,6.65
2019-01-13T00:46:56.360Z,6.81
2019-01-13T00:47:56.317Z,6.68
2019-01-13T00:48:56.321Z,6.65
2019-01-13T00:49:56.329Z,6.69
2019-01-13T00:50:56.267Z,6.68
2019-01-13T00:51:56.256Z,6.75
2019-01-13T00:52:56.260Z,6.81
2019-01-13T00:53:56.254Z,6.75
2019-01-13T00:54:56.240Z,6.65
2019-01-13T00:55:56.232Z,6.64
2019-01-13T00:56:56.283Z,6.71
2019-01-13T00:57:56.246Z,6.65
2019-01-13T00:58:56.208Z,6.68
2019-01-13T00:59:56.247Z,6.69
2019-01-13T01:00:56.163Z,6.75
2019-01-13T01:01:56.179Z,6.68
2019-01-13T01:02:56.140Z,6.68
2019-01-13T01:03:56.154Z,6.71
2019-01-13T01:04:56.129Z,6.71
2019-01-13T01:05:56.109Z,6.71
2019-01-13T01:06:56.100Z,6.65
2019-01-13T01:07:56.091Z,6.75
2019-01-13T01:08:56.104Z,6.63
2019-01-13T01:09:56.065Z,6.69
2019-01-13T01:10:56.054Z,6.71
2019-01-13T01:11:56.045Z,6.65
2019-01-13T01:12:56.972Z,6.71
2019-01-13T01:13:56.042Z,6.65
2019-01-13T01:14:56.021Z,6.71
2019-01-13T01:15:56.000Z,6.69
2019-01-13T01:16:56.025Z,6.65
2019-01-13T01:17:55.988Z,6.69
2019-01-13T01:18:56.005Z,6.79
2019-01-13T01:19:56.005Z,6.71
2019-01-13T01:20:55.940Z,6.69
2019-01-13T01:21:55.944Z,6.69
2019-01-13T01:22:55.931Z,6.69
2019-01-13T01:23:55.932Z,6.72
2019-01-13T01:26:05.123Z,6.68
2019-01-13T01:27:06.104Z,6.69
2019-01-13T01:28:06.088Z,6.68
2019-01-13T01:29:06.057Z,6.65
2019-01-13T01:30:06.874Z,6.65
2019-01-13T01:31:06.080Z,6.69
2019-01-13T01:32:06.039Z,6.69
2019-01-13T01:33:06.028Z,6.68
2019-01-13T01:34:06.022Z,6.68
2019-01-13T01:35:06.001Z,6.65
2019-01-13T01:36:05.996Z,6.72
2019-01-13T01:37:05.974Z,6.71
2019-01-13T01:38:05.960Z,6.76
2019-01-13T01:39:05.960Z,6.72
2019-01-13T01:40:05.952Z,6.63
2019-01-13T01:41:05.930Z,6.63
2019-01-13T01:42:05.952Z,6.65
2019-01-13T01:43:05.914Z,6.64
2019-01-13T01:44:05.903Z,6.64
2019-01-13T01:45:05.894Z,6.69
2019-01-13T01:46:05.891Z,6.69
2019-01-13T01:47:05.885Z,6.68
2019-01-13T01:48:05.918Z,6.65
2019-01-13T01:49:05.849Z,6.69
2019-01-13T01:50:05.860Z,6.72
2019-01-13T01:51:05.833Z,6.68
2019-01-13T01:52:05.823Z,6.71
2019-01-13T01:53:05.815Z,6.65
2019-01-13T01:54:05.790Z,6.64
2019-01-13T01:55:05.811Z,6.65
2019-01-13T01:56:05.774Z,6.75
2019-01-13T01:57:05.780Z,6.65
2019-01-13T01:58:05.821Z,6.68
2019-01-13T01:59:05.758Z,6.69
2019-01-13T02:00:05.752Z,6.64
2019-01-13T02:01:05.722Z,6.69
2019-01-13T02:02:05.724Z,6.64
2019-01-13T02:03:05.698Z,6.73
2019-01-13T02:04:05.708Z,6.69
2019-01-13T02:05:05.675Z,6.69
2019-01-13T02:06:05.717Z,6.64
2019-01-13T02:07:05.735Z,6.71
2019-01-13T02:08:05.704Z,6.73
2019-01-13T02:09:05.637Z,6.60
2019-01-13T02:10:05.628Z,6.69
2019-01-13T02:11:05.613Z,6.72
2019-01-13T02:12:05.623Z,6.72
2019-01-13T02:13:05.598Z,6.73
2019-01-13T02:14:05.587Z,6.69
2019-01-13T02:15:05.576Z,6.73
2019-01-13T02:16:05.551Z,6.64
2019-01-13T02:17:05.564Z,6.68
2019-01-13T02:18:05.546Z,6.69
2019-01-13T02:19:05.555Z,6.69
2019-01-13T02:20:05.529Z,6.78
2019-01-13T02:21:05.531Z,6.81
2019-01-13T02:22:05.519Z,6.68
2019-01-13T02:23:05.541Z,6.79
2019-01-13T02:24:05.472Z,6.63
2019-01-13T02:25:05.458Z,6.79
2019-01-13T02:26:05.450Z,6.73
2019-01-13T02:27:05.470Z,6.64
2019-01-13T02:28:05.452Z,6.65
2019-01-13T02:29:05.425Z,6.68
2019-01-13T02:30:05.424Z,6.69
2019-01-13T02:31:05.410Z,6.75
2019-01-13T02:32:05.389Z,6.68
2019-01-13T02:33:05.450Z,6.75
2019-01-13T02:34:05.392Z,6.78
2019-01-13T02:35:05.392Z,6.64
2019-01-13T02:36:05.372Z,6.72
2019-01-13T02:37:05.343Z,6.65
2019-01-13T02:38:05.851Z,6.78
2019-01-13T02:39:05.895Z,6.73
2019-01-13T02:40:05.345Z,6.64
2019-01-13T02:41:05.325Z,6.65
2019-01-13T02:42:05.843Z,6.73
2019-01-13T02:43:05.387Z,6.75
2019-01-13T02:44:05.317Z,6.69
2019-01-13T02:45:05.378Z,6.82
2019-01-13T02:46:05.238Z,6.79
2019-01-13T02:47:05.221Z,6.72
2019-01-13T02:48:05.277Z,6.79
2019-01-13T02:49:05.209Z,6.79
2019-01-13T02:50:05.208Z,6.71
2019-01-13T02:51:05.197Z,6.76
2019-01-13T02:52:05.178Z,6.76
2019-01-13T02:53:05.180Z,6.78
2019-01-13T02:54:05.159Z,6.81
2019-01-13T02:55:05.140Z,6.79
2019-01-13T02:56:05.124Z,6.79
2019-01-13T02:57:05.120Z,6.82
2019-01-13T02:58:05.125Z,6.91
2019-01-13T02:59:05.110Z,6.78
2019-01-13T03:00:05.105Z,6.72
2019-01-13T03:01:05.106Z,6.72
2019-01-13T03:02:05.057Z,6.89
2019-01-13T03:03:05.070Z,6.81
2019-01-13T03:04:05.070Z,6.83
2019-01-13T03:05:05.041Z,6.75
2019-01-13T03:06:05.030Z,6.76
2019-01-13T03:07:05.014Z,6.79
2019-01-13T03:08:05.017Z,6.72
2019-01-13T03:09:05.002Z,6.78
2019-01-13T03:10:05.009Z,6.86
2019-01-13T03:11:04.973Z,6.73
2019-01-13T03:12:04.964Z,6.82
2019-01-13T03:13:04.967Z,6.90
2019-01-13T03:14:04.972Z,6.89
2019-01-13T03:15:04.929Z,6.78
2019-01-13T03:16:04.912Z,6.81
2019-01-13T03:17:04.904Z,6.79
2019-01-13T03:18:04.903Z,6.82
2019-01-13T03:19:04.909Z,6.86
2019-01-13T03:20:04.878Z,6.91
2019-01-13T03:21:04.875Z,6.86
2019-01-13T03:22:05.815Z,6.87
2019-01-13T03:23:04.844Z,6.91
2019-01-13T03:24:04.848Z,6.87
2019-01-13T03:25:04.828Z,6.87
2019-01-13T03:27:14.016Z,6.89
2019-01-13T03:28:15.007Z,6.86
2019-01-13T03:29:15.008Z,6.86
2019-01-13T03:30:14.973Z,6.90
2019-01-13T03:31:14.984Z,6.90
2019-01-13T03:32:14.968Z,6.89
2019-01-13T03:33:14.937Z,6.87
2019-01-13T03:34:14.958Z,6.89
2019-01-13T03:35:14.916Z,6.91
2019-01-13T03:36:14.912Z,7.00
2019-01-13T03:37:14.914Z,6.90
2019-01-13T03:38:14.897Z,6.83
2019-01-13T03:39:14.905Z,7.05
2019-01-13T03:40:15.255Z,7.09
2019-01-13T03:41:14.852Z,6.90
2019-01-13T03:42:14.852Z,6.99
2019-01-13T03:43:14.846Z,6.99
2019-01-13T03:44:14.843Z,6.89
2019-01-13T03:45:14.816Z,7.00
2019-01-13T03:46:14.804Z,7.01
2019-01-13T03:47:14.786Z,7.00
2019-01-13T03:48:14.779Z,6.94
2019-01-13T03:49:14.800Z,7.00
2019-01-13T03:50:14.767Z,6.96
2019-01-13T03:51:14.746Z,6.96
2019-01-13T03:52:14.749Z,7.04
2019-01-13T03:53:14.733Z,6.97
2019-01-13T03:54:14.730Z,6.99
2019-01-13T03:55:14.722Z,7.04
2019-01-13T03:56:14.698Z,7.00
2019-01-13T03:57:14.689Z,6.96
2019-01-13T03:58:14.672Z,6.97
2019-01-13T03:59:14.678Z,6.96
2019-01-13T04:00:14.666Z,6.89
2019-01-13T04:01:18.653Z,6.96
2019-01-13T04:02:14.635Z,7.00
2019-01-13T04:03:14.622Z,6.94
2019-01-13T04:04:14.620Z,6.96
2019-01-13T04:05:14.635Z,6.96
2019-01-13T04:06:14.589Z,7.05
2019-01-13T04:07:14.575Z,6.97
2019-01-13T04:08:14.566Z,6.97
2019-01-13T04:09:14.568Z,6.99
2019-01-13T04:10:14.569Z,7.01
2019-01-13T04:11:14.545Z,7.09
2019-01-13T04:12:14.585Z,7.11
2019-01-13T04:13:14.512Z,7.05
2019-01-13T04:14:14.510Z,7.07
2019-01-13T04:15:14.517Z,7.07
2019-01-13T04:16:14.490Z,7.05
2019-01-13T04:17:14.475Z,7.05
2019-01-13T04:18:14.460Z,7.04
2019-01-13T04:19:14.444Z,7.11
2019-01-13T04:20:14.449Z,7.05
2019-01-13T04:21:14.437Z,7.05
2019-01-13T04:22:14.423Z,7.11
2019-01-13T04:23:14.403Z,7.16
2019-01-13T04:24:14.406Z,7.09
2019-01-13T04:25:14.408Z,7.15
2019-01-13T04:26:14.371Z,7.09
2019-01-13T04:27:14.368Z,7.04
2019-01-13T04:28:14.362Z,7.15
2019-01-13T04:29:14.349Z,7.05
2019-01-13T04:30:14.349Z,7.09
2019-01-13T04:31:14.322Z,7.15
2019-01-13T04:32:14.317Z,7.08
2019-01-13T04:33:14.299Z,7.09
2019-01-13T04:34:14.297Z,7.12
2019-01-13T04:35:14.296Z,7.09
2019-01-13T04:36:14.288Z,7.15
2019-01-13T04:37:14.261Z,7.09
2019-01-13T04:38:14.251Z,7.14
2019-01-13T04:39:14.241Z,7.12
2019-01-13T04:40:14.252Z,7.18
2019-01-13T04:41:14.211Z,7.19
2019-01-13T04:42:14.209Z,7.21
2019-01-13T04:43:14.188Z,7.14
2019-01-13T04:44:14.199Z,7.19
2019-01-13T04:45:14.192Z,7.16
2019-01-13T04:46:14.184Z,7.19
2019-01-13T04:47:14.156Z,7.16
2019-01-13T04:48:14.147Z,7.18
2019-01-13T04:49:14.125Z,7.33
2019-01-13T04:50:14.141Z,7.30
2019-01-13T04:51:14.112Z,7.16
2019-01-13T04:52:14.117Z,7.33
2019-01-13T04:53:14.091Z,7.33
2019-01-13T04:54:14.083Z,7.30
2019-01-13T04:55:14.076Z,7.27
2019-01-13T04:56:14.056Z,7.21
2019-01-13T04:57:14.054Z,7.29
2019-01-13T04:58:14.024Z,7.30
2019-01-13T04:59:14.016Z,7.16
2019-01-13T05:00:14.002Z,7.27
2019-01-13T05:01:14.005Z,7.30
2019-01-13T05:02:13.991Z,7.27
2019-01-13T05:03:13.979Z,7.29
2019-01-13T05:04:13.970Z,7.21
2019-01-13T05:05:13.965Z,7.30
2019-01-13T05:06:13.969Z,7.27
2019-01-13T05:07:13.952Z,7.23
2019-01-13T05:08:13.960Z,7.26
2019-01-13T05:09:14.113Z,7.36
2019-01-13T05:10:13.896Z,7.27
2019-01-13T05:11:13.909Z,7.36
2019-01-13T05:12:13.890Z,7.27
2019-01-13T05:13:13.869Z,7.39
2019-01-13T05:14:13.871Z,7.37
2019-01-13T05:15:13.858Z,7.30
2019-01-13T05:16:13.869Z,7.36
2019-01-13T05:17:13.868Z,7.41
2019-01-13T05:18:13.817Z,7.45
2019-01-13T05:19:13.827Z,7.36
2019-01-13T05:20:13.797Z,7.39
2019-01-13T05:21:13.808Z,7.37
2019-01-13T05:22:13.772Z,7.36
2019-01-13T05:23:13.768Z,7.30
2019-01-13T05:24:13.749Z,7.42
2019-01-13T05:25:13.736Z,7.34
2019-01-13T05:26:13.763Z,7.47
2019-01-13T05:28:22.954Z,7.48
2019-01-13T05:29:23.916Z,7.45
2019-01-13T05:30:23.889Z,7.44
2019-01-13T05:31:23.913Z,7.44
2019-01-13T05:32:23.880Z,7.44
2019-01-13T05:33:23.859Z,7.42
2019-01-13T05:34:23.857Z,7.45
2019-01-13T05:35:23.837Z,7.47
2019-01-13T05:36:23.848Z,7.44
2019-01-13T05:37:23.814Z,7.47
2019-01-13T05:38:23.810Z,7.44
2019-01-13T05:39:23.789Z,7.47
2019-01-13T05:40:23.786Z,7.42
2019-01-13T05:41:23.800Z,7.48
2019-01-13T05:42:23.773Z,7.47
2019-01-13T05:43:23.822Z,7.42
2019-01-13T05:44:23.747Z,7.42
2019-01-13T05:45:23.751Z,7.44
2019-01-13T05:46:23.756Z,7.44
2019-01-13T05:47:23.736Z,7.47
2019-01-13T05:48:23.695Z,7.41
2019-01-13T05:49:23.693Z,7.44
2019-01-13T05:50:23.709Z,7.44
2019-01-13T05:51:23.695Z,7.57
2019-01-13T05:52:23.669Z,7.47
2019-01-13T05:53:23.646Z,7.52
2019-01-13T05:54:23.645Z,7.48
2019-01-13T05:55:23.624Z,7.45
2019-01-13T05:56:23.627Z,7.44
2019-01-13T05:57:23.604Z,7.42
2019-01-13T05:58:23.605Z,7.45
2019-01-13T05:59:23.581Z,7.47
2019-01-13T06:00:23.585Z,7.42
2019-01-13T06:01:23.574Z,7.47
2019-01-13T06:02:23.569Z,7.48
2019-01-13T06:03:23.551Z,7.52
2019-01-13T06:04:23.530Z,7.45
2019-01-13T06:05:23.519Z,7.34
2019-01-13T06:06:23.533Z,7.37
2019-01-13T06:07:23.507Z,7.41
2019-01-13T06:08:23.484Z,7.42
2019-01-13T06:09:23.472Z,7.37
2019-01-13T06:10:23.465Z,7.37
2019-01-13T06:11:23.465Z,7.39
2019-01-13T06:12:23.466Z,7.41
2019-01-13T06:13:23.431Z,7.41
2019-01-13T06:14:23.427Z,7.39
2019-01-13T06:15:23.410Z,7.39
2019-01-13T06:16:23.423Z,7.36
2019-01-13T06:17:23.386Z,7.32
2019-01-13T06:18:23.385Z,7.32
2019-01-13T06:19:23.364Z,7.36
2019-01-13T06:20:23.357Z,7.36
2019-01-13T06:21:23.356Z,7.36
2019-01-13T06:22:23.339Z,7.34
2019-01-13T06:23:23.320Z,7.24
2019-01-13T06:24:23.337Z,7.36
2019-01-13T06:25:23.307Z,7.36
2019-01-13T06:26:23.308Z,7.32
2019-01-13T06:27:23.329Z,7.34
2019-01-13T06:28:23.274Z,7.33
2019-01-13T06:29:23.286Z,7.34
2019-01-13T06:30:23.276Z,7.32
2019-01-13T06:31:23.267Z,7.32
2019-01-13T06:32:23.274Z,7.39
2019-01-13T06:33:23.306Z,7.34
2019-01-13T06:34:23.211Z,7.30
2019-01-13T06:35:23.188Z,7.37
2019-01-13T06:36:23.200Z,7.29
2019-01-13T06:37:23.189Z,7.33
2019-01-13T06:38:23.157Z,7.34
2019-01-13T06:39:23.165Z,7.27
2019-01-13T06:40:23.177Z,7.30
2019-01-13T06:41:23.157Z,7.33
2019-01-13T06:42:23.125Z,7.36
2019-01-13T06:43:23.117Z,7.36
2019-01-13T06:44:23.112Z,7.21
2019-01-13T06:45:23.084Z,7.32
2019-01-13T06:46:23.095Z,7.41
2019-01-13T06:47:23.075Z,7.32
2019-01-13T06:48:23.047Z,7.30
2019-01-13T06:49:23.049Z,7.39
2019-01-13T06:50:23.039Z,7.30
2019-01-13T06:51:23.036Z,7.36
2019-01-13T06:52:23.010Z,7.41
2019-01-13T06:53:23.015Z,7.33
2019-01-13T06:54:22.994Z,7.41
2019-01-13T06:55:22.977Z,7.32
2019-01-13T06:56:23.136Z,7.34
2019-01-13T06:57:22.980Z,7.42
2019-01-13T06:58:22.977Z,7.33
2019-01-13T06:59:22.956Z,7.36
2019-01-13T07:00:22.946Z,7.36
2019-01-13T07:01:22.921Z,7.50
2019-01-13T07:02:22.953Z,7.48
2019-01-13T07:03:22.899Z,7.37
2019-01-13T07:04:22.910Z,7.36
2019-01-13T07:05:22.881Z,7.33
2019-01-13T07:06:22.870Z,7.33
2019-01-13T07:07:22.874Z,7.37
2019-01-13T07:08:22.880Z,7.48
2019-01-13T07:09:22.867Z,7.47
2019-01-13T07:10:22.851Z,7.50
2019-01-13T07:11:22.838Z,7.47
2019-01-13T07:12:22.805Z,7.50
2019-01-13T07:13:22.813Z,7.44
2019-01-13T07:14:22.797Z,7.44
2019-01-13T07:15:22.771Z,7.45
2019-01-13T07:16:22.762Z,7.47
2019-01-13T07:17:22.770Z,7.45
2019-01-13T07:18:22.734Z,7.54
2019-01-13T07:19:22.770Z,7.45
2019-01-13T07:20:22.723Z,7.47
2019-01-13T07:21:22.710Z,7.47
2019-01-13T07:22:22.706Z,7.45
2019-01-13T07:23:22.719Z,7.48
2019-01-13T07:24:22.671Z,7.48
2019-01-13T07:25:22.652Z,7.44
2019-01-13T07:26:22.671Z,7.51
2019-01-13T07:27:22.643Z,7.48
2019-01-13T07:29:31.852Z,7.51
2019-01-13T07:30:32.828Z,7.66
2019-01-13T07:31:32.822Z,7.63
2019-01-13T07:32:32.854Z,7.55
2019-01-13T07:33:32.795Z,7.62
2019-01-13T07:34:32.776Z,7.55
2019-01-13T07:35:32.787Z,7.62
2019-01-13T07:36:32.763Z,7.55
2019-01-13T07:37:32.763Z,7.54
2019-01-13T07:38:32.749Z,7.58
2019-01-13T07:39:32.761Z,7.60
2019-01-13T07:40:32.719Z,7.67
2019-01-13T07:41:32.724Z,7.60
2019-01-13T07:42:32.699Z,7.67
2019-01-13T07:43:32.688Z,7.67
2019-01-13T07:44:32.671Z,7.67
2019-01-13T07:45:32.649Z,7.63
2019-01-13T07:46:32.648Z,7.76
2019-01-13T07:47:32.667Z,7.70
2019-01-13T07:48:32.643Z,7.63
2019-01-13T07:49:32.625Z,7.63
2019-01-13T07:50:32.594Z,7.74
2019-01-13T07:51:32.590Z,7.66
2019-01-13T07:52:32.599Z,7.74
2019-01-13T07:53:32.617Z,7.74
2019-01-13T07:54:32.570Z,7.73
2019-01-13T07:55:32.549Z,7.73
2019-01-13T07:56:32.540Z,7.77
2019-01-13T07:57:32.549Z,7.79
2019-01-13T07:58:32.520Z,7.81
2019-01-13T07:59:32.555Z,7.85
2019-01-13T08:00:32.521Z,7.82
2019-01-13T08:01:32.524Z,7.86
2019-01-13T08:02:32.500Z,7.84
2019-01-13T08:03:32.539Z,7.82
2019-01-13T08:04:32.454Z,7.81
2019-01-13T08:05:32.440Z,7.82
2019-01-13T08:06:32.437Z,7.85
2019-01-13T08:07:32.432Z,7.76
2019-01-13T08:08:32.409Z,7.79
2019-01-13T08:09:32.438Z,7.79
2019-01-13T08:10:32.381Z,7.81
2019-01-13T08:11:32.403Z,7.82
2019-01-13T08:12:32.435Z,7.79
2019-01-13T08:13:32.359Z,7.82
2019-01-13T08:14:32.345Z,7.82
2019-01-13T08:15:32.330Z,7.89
2019-01-13T08:16:32.341Z,7.82
2019-01-13T08:17:32.327Z,7.94
2019-01-13T08:18:32.307Z,7.95
2019-01-13T08:19:32.277Z,8.00
2019-01-13T08:20:32.308Z,7.92
2019-01-13T08:21:32.270Z,7.99
2019-01-13T08:22:32.278Z,7.94
2019-01-13T08:23:32.259Z,7.95
2019-01-13T08:24:32.232Z,7.91
2019-01-13T08:25:32.222Z,7.89
2019-01-13T08:26:32.216Z,7.99
2019-01-13T08:27:32.204Z,7.99
2019-01-13T08:28:32.186Z,8.00
2019-01-13T08:29:32.773Z,7.95
2019-01-13T08:30:32.195Z,8.06
2019-01-13T08:31:32.157Z,7.99
2019-01-13T08:32:32.155Z,8.03
2019-01-13T08:33:32.175Z,7.94
2019-01-13T08:34:32.127Z,8.03
2019-01-13T08:35:32.106Z,8.04
2019-01-13T08:36:32.133Z,8.07
2019-01-13T08:37:32.094Z,7.99
2019-01-13T08:38:32.074Z,8.00
2019-01-13T08:39:32.101Z,8.04
2019-01-13T08:40:32.065Z,8.09
2019-01-13T08:41:32.063Z,8.04
2019-01-13T08:42:32.034Z,8.04
2019-01-13T08:43:32.154Z,7.99
2019-01-13T08:44:32.031Z,7.95
2019-01-13T08:45:32.009Z,8.06
2019-01-13T08:46:31.991Z,8.17
2019-01-13T08:47:31.987Z,8.07
2019-01-13T08:48:31.978Z,8.09
2019-01-13T08:49:31.976Z,8.13
2019-01-13T08:50:31.939Z,8.03
2019-01-13T08:51:31.927Z,8.07
2019-01-13T08:52:31.920Z,8.07
2019-01-13T08:53:31.916Z,8.09
2019-01-13T08:54:31.937Z,8.09
2019-01-13T08:55:31.898Z,8.14
2019-01-13T08:56:31.877Z,8.12
2019-01-13T08:57:31.869Z,8.07
2019-01-13T08:58:31.887Z,8.14
2019-01-13T08:59:31.860Z,8.06
2019-01-13T09:00:31.857Z,8.03
2019-01-13T09:01:31.847Z,8.09
2019-01-13T09:02:32.313Z,8.12
2019-01-13T09:03:31.848Z,8.12
2019-01-13T09:04:31.800Z,8.10
2019-01-13T09:05:31.779Z,8.09
2019-01-13T09:06:31.787Z,8.09
2019-01-13T09:07:31.782Z,8.07
2019-01-13T09:08:31.764Z,8.17
2019-01-13T09:09:31.753Z,8.09
2019-01-13T09:10:31.714Z,8.12
2019-01-13T09:11:31.717Z,8.20
2019-01-13T09:12:31.700Z,8.20
2019-01-13T09:13:31.713Z,8.20
2019-01-13T09:14:31.743Z,8.14
2019-01-13T09:15:31.684Z,8.14
2019-01-13T09:16:31.654Z,8.18
2019-01-13T09:17:31.652Z,8.22
2019-01-13T09:18:31.649Z,8.21
2019-01-13T09:19:31.637Z,8.22
2019-01-13T09:20:31.610Z,8.27
2019-01-13T09:21:31.609Z,8.24
2019-01-13T09:22:31.607Z,8.27
2019-01-13T09:23:31.594Z,8.31
2019-01-13T09:24:31.573Z,8.32
2019-01-13T09:25:31.565Z,8.40
2019-01-13T09:26:31.556Z,8.39
2019-01-13T09:27:31.557Z,8.29
2019-01-13T09:28:31.542Z,8.39
2019-01-13T09:30:41.037Z,8.34
2019-01-13T09:31:42.000Z,8.36
2019-01-13T09:32:41.986Z,8.42
2019-01-13T09:33:42.025Z,8.45
2019-01-13T09:34:41.979Z,8.42
2019-01-13T09:35:41.955Z,8.49
2019-01-13T09:36:41.936Z,8.40
2019-01-13T09:37:41.930Z,8.50
2019-01-13T09:38:41.932Z,8.58
2019-01-13T09:39:41.924Z,8.52
2019-01-13T09:40:41.909Z,8.58
2019-01-13T09:41:41.892Z,8.55
2019-01-13T09:42:41.874Z,8.57
2019-01-13T09:43:41.874Z,8.55
2019-01-13T09:44:41.864Z,8.55
2019-01-13T09:45:41.844Z,8.60
2019-01-13T09:46:41.836Z,8.68
2019-01-13T09:47:41.834Z,8.64
2019-01-13T09:48:41.821Z,8.60
2019-01-13T09:49:41.809Z,8.67
2019-01-13T09:50:41.777Z,8.61
2019-01-13T09:51:41.796Z,8.60
2019-01-13T09:52:41.789Z,8.58
2019-01-13T09:53:41.777Z,8.64
2019-01-13T09:54:41.763Z,8.64
2019-01-13T09:55:41.747Z,8.58
2019-01-13T09:56:41.749Z,8.70
2019-01-13T09:57:41.712Z,8.61
2019-01-13T09:58:41.704Z,8.67
2019-01-13T09:59:41.708Z,8.70
2019-01-13T10:00:41.679Z,8.70
2019-01-13T10:01:41.692Z,8.65
2019-01-13T10:02:46.598Z,8.63
2019-01-13T10:03:41.662Z,8.65
2019-01-13T10:04:41.655Z,8.71
2019-01-13T10:05:41.628Z,8.76
2019-01-13T10:06:41.615Z,8.82
2019-01-13T10:07:42.518Z,8.71
2019-01-13T10:08:41.605Z,8.71
2019-01-13T10:09:41.593Z,8.73
2019-01-13T10:10:41.580Z,8.80
2019-01-13T10:11:41.580Z,8.75
2019-01-13T10:12:41.550Z,8.75
2019-01-13T10:13:41.544Z,8.85
2019-01-13T10:14:41.559Z,8.79
2019-01-13T10:15:41.518Z,8.79
2019-01-13T10:16:41.500Z,8.75
2019-01-13T10:17:41.512Z,8.78
2019-01-13T10:18:41.499Z,8.79
2019-01-13T10:19:41.487Z,8.78
2019-01-13T10:20:41.488Z,8.83
2019-01-13T10:21:41.447Z,8.76
2019-01-13T10:22:41.434Z,8.76
2019-01-13T10:23:41.434Z,8.76
2019-01-13T10:24:41.473Z,8.83
2019-01-13T10:25:41.408Z,8.78
2019-01-13T10:26:41.385Z,8.83
2019-01-13T10:27:41.406Z,8.83
2019-01-13T10:28:41.708Z,8.80
2019-01-13T10:29:41.375Z,8.82
2019-01-13T10:30:41.362Z,8.79
2019-01-13T10:31:41.337Z,8.82
2019-01-13T10:32:41.327Z,8.82
2019-01-13T10:33:41.326Z,8.78
2019-01-13T10:34:41.380Z,8.88
2019-01-13T10:35:41.290Z,8.91
2019-01-13T10:36:41.323Z,8.93
2019-01-13T10:37:41.271Z,8.93
2019-01-13T10:38:41.294Z,8.89
2019-01-13T10:39:41.260Z,8.91
2019-01-13T10:40:41.236Z,8.91
2019-01-13T10:41:41.230Z,8.98
2019-01-13T10:42:41.226Z,8.89
2019-01-13T10:43:41.243Z,8.89
2019-01-13T10:44:41.239Z,8.93
2019-01-13T10:45:41.247Z,8.96
2019-01-13T10:46:41.181Z,8.98
2019-01-13T10:47:41.169Z,9.00
2019-01-13T10:48:41.160Z,8.91
2019-01-13T10:49:41.167Z,8.97
2019-01-13T10:50:41.165Z,9.00
2019-01-13T10:51:41.121Z,9.00
2019-01-13T10:52:41.129Z,8.98
2019-01-13T10:53:41.121Z,9.00
2019-01-13T10:54:41.098Z,8.98
2019-01-13T10:55:41.137Z,9.00
2019-01-13T10:56:41.064Z,8.98
2019-01-13T10:57:41.069Z,9.01
2019-01-13T10:58:41.046Z,8.97
2019-01-13T10:59:41.051Z,9.01
2019-01-13T11:00:41.012Z,9.06
2019-01-13T11:01:41.005Z,9.00
2019-01-13T11:02:40.998Z,8.98
2019-01-13T11:03:40.977Z,8.98
2019-01-13T11:04:40.988Z,8.98
2019-01-13T11:05:40.988Z,9.00
2019-01-13T11:06:40.975Z,9.06
2019-01-13T11:07:40.947Z,9.01
2019-01-13T11:08:40.937Z,9.06
2019-01-13T11:09:40.981Z,9.03
2019-01-13T11:10:40.919Z,9.01
2019-01-13T11:11:40.916Z,9.06
2019-01-13T11:12:40.894Z,9.10
2019-01-13T11:13:40.886Z,8.97
2019-01-13T11:14:40.865Z,8.98
2019-01-13T11:15:40.860Z,9.00
2019-01-13T11:16:40.911Z,9.04
2019-01-13T11:17:40.875Z,8.97
2019-01-13T11:18:40.838Z,8.98
2019-01-13T11:19:40.823Z,9.04
2019-01-13T11:20:40.810Z,9.04
2019-01-13T11:21:40.802Z,9.01
2019-01-13T11:22:40.783Z,9.06
2019-01-13T11:23:40.785Z,9.00
2019-01-13T11:24:40.744Z,9.03
2019-01-13T11:25:40.763Z,8.97
2019-01-13T11:26:40.742Z,9.00
2019-01-13T11:27:40.756Z,9.08
2019-01-13T11:28:40.718Z,8.96
2019-01-13T11:29:40.715Z,9.00
2019-01-13T11:31:49.959Z,9.12
2019-01-13T11:32:50.927Z,9.00
2019-01-13T11:33:50.879Z,8.97
2019-01-13T11:34:50.864Z,9.04
2019-01-13T11:35:50.864Z,9.01
2019-01-13T11:36:50.865Z,8.98
2019-01-13T11:37:50.843Z,9.08
2019-01-13T11:38:50.814Z,9.03
2019-01-13T11:39:50.803Z,8.96
2019-01-13T11:40:50.812Z,9.01
2019-01-13T11:41:50.814Z,9.08
2019-01-13T11:42:50.796Z,9.01
2019-01-13T11:43:50.846Z,8.98
2019-01-13T11:44:50.765Z,9.01
2019-01-13T11:45:50.769Z,9.04
2019-01-13T11:46:50.783Z,9.01
2019-01-13T11:47:50.730Z,9.01
2019-01-13T11:48:50.780Z,9.00
2019-01-13T11:49:50.796Z,9.01
2019-01-13T11:50:50.701Z,8.96
2019-01-13T11:51:50.693Z,8.96
2019-01-13T11:52:50.687Z,9.01
2019-01-13T11:53:50.653Z,9.01
2019-01-13T11:54:50.637Z,8.97
2019-01-13T11:55:50.649Z,8.98
2019-01-13T11:56:50.656Z,8.98
2019-01-13T11:57:50.642Z,8.98
2019-01-13T11:58:50.593Z,9.06
2019-01-13T11:59:50.610Z,9.00
2019-01-13T12:00:50.572Z,8.97
2019-01-13T12:01:50.602Z,8.96
2019-01-13T12:02:50.564Z,8.98
2019-01-13T12:03:50.539Z,8.97
2019-01-13T12:04:50.537Z,8.93
2019-01-13T12:05:50.524Z,8.98
2019-01-13T12:06:50.522Z,8.98
2019-01-13T12:07:50.551Z,8.98
2019-01-13T12:08:50.517Z,8.98
2019-01-13T12:09:50.495Z,9.03
2019-01-13T12:10:50.470Z,8.91
2019-01-13T12:11:50.482Z,9.03
2019-01-13T12:12:50.447Z,8.96
2019-01-13T12:13:50.436Z,8.91
2019-01-13T12:14:50.439Z,9.03
2019-01-13T12:15:50.425Z,8.97
2019-01-13T12:16:50.414Z,9.00
2019-01-13T12:17:50.665Z,9.03
2019-01-13T12:18:50.405Z,9.00
2019-01-13T12:19:50.383Z,8.89
2019-01-13T12:20:50.363Z,9.04
2019-01-13T12:21:50.390Z,8.97
2019-01-13T12:22:50.400Z,8.97
2019-01-13T12:23:50.358Z,8.94
2019-01-13T12:24:50.309Z,9.00
2019-01-13T12:25:52.825Z,8.91
2019-01-13T12:26:50.318Z,8.98
2019-01-13T12:27:50.296Z,8.98
2019-01-13T12:28:50.286Z,9.00
2019-01-13T12:29:50.278Z,9.04
2019-01-13T12:30:50.249Z,8.97
2019-01-13T12:31:50.253Z,8.91
2019-01-13T12:32:50.236Z,8.98
2019-01-13T12:33:50.235Z,9.03
2019-01-13T12:34:50.254Z,9.00
2019-01-13T12:35:50.204Z,8.98
2019-01-13T12:36:50.207Z,9.01
2019-01-13T12:37:50.178Z,8.91
2019-01-13T12:38:50.168Z,9.01
2019-01-13T12:39:50.158Z,8.97
2019-01-13T12:40:50.146Z,8.98
2019-01-13T12:41:50.151Z,8.97
2019-01-13T12:42:50.164Z,8.94
2019-01-13T12:43:50.108Z,8.96
2019-01-13T12:44:50.096Z,8.93
2019-01-13T12:45:50.137Z,8.91
2019-01-13T12:46:50.105Z,8.93
2019-01-13T12:47:50.097Z,8.94
2019-01-13T12:48:50.105Z,8.98
2019-01-13T12:49:50.051Z,8.91
2019-01-13T12:50:50.052Z,8.91
2019-01-13T12:51:50.071Z,8.94
2019-01-13T12:52:50.041Z,9.00
2019-01-13T12:53:50.064Z,9.04
2019-01-13T12:54:51.586Z,8.98
2019-01-13T12:55:49.985Z,9.01
2019-01-13T12:56:50.006Z,9.00
2019-01-13T12:57:49.960Z,9.01
2019-01-13T12:58:50.036Z,9.04
2019-01-13T12:59:49.996Z,9.04
2019-01-13T13:00:49.964Z,8.98
2019-01-13T13:01:49.990Z,9.03
2019-01-13T13:02:49.926Z,9.03
2019-01-13T13:03:49.898Z,9.06
2019-01-13T13:04:49.924Z,9.01
2019-01-13T13:05:49.948Z,9.04
2019-01-13T13:06:49.874Z,9.03
2019-01-13T13:07:49.932Z,8.97
2019-01-13T13:08:49.875Z,8.98
2019-01-13T13:09:49.883Z,8.97
2019-01-13T13:10:49.856Z,8.94
2019-01-13T13:11:49.882Z,8.94
2019-01-13T13:12:49.849Z,8.97
2019-01-13T13:13:49.858Z,8.94
2019-01-13T13:14:49.817Z,9.00
2019-01-13T13:15:49.774Z,8.98
2019-01-13T13:16:49.806Z,8.96
2019-01-13T13:17:49.805Z,8.91
2019-01-13T13:18:49.739Z,8.96
2019-01-13T13:19:49.770Z,8.97
2019-01-13T13:20:49.833Z,8.89
2019-01-13T13:21:49.732Z,8.88
2019-01-13T13:22:49.711Z,8.94
2019-01-13T13:23:49.736Z,8.86
2019-01-13T13:24:49.701Z,8.96
2019-01-13T13:25:49.725Z,8.91